sensor_id;sensor_type;location;lat;lon;timestamp;P1;durP1;ratioP1;P2;durP2;ratioP2
70549;SDS011;58101;48.658;2.328;2022-11-20T00:01:15;13.05;;;3.00;;
70549;SDS011;58101;48.658;2.328;2022-11-20T00:04:02;9.80;;;2.58;;
70549;SDS011;58101;48.658;2.328;2022-11-20T00:06:28;8.65;;;2.63;;
70549;SDS011;58101;48.658;2.328;2022-11-20T00:09:12;10.43;;;2.70;;
70549;SDS011;58101;48.658;2.328;2022-11-20T00:11:37;8.40;;;2.70;;
70549;SDS011;58101;48.658;2.328;2022-11-20T00:14:12;11.13;;;2.97;;
70549;SDS011;58101;48.658;2.328;2022-11-20T00:16:38;10.18;;;2.70;;
70549;SDS011;58101;48.658;2.328;2022-11-20T00:19:04;12.35;;;3.17;;
70549;SDS011;58101;48.658;2.328;2022-11-20T00:21:29;9.23;;;3.15;;
70549;SDS011;58101;48.658;2.328;2022-11-20T00:23:56;13.73;;;3.10;;
70549;SDS011;58101;48.658;2.328;2022-11-20T00:26:23;8.63;;;2.70;;
70549;SDS011;58101;48.658;2.328;2022-11-20T00:28:51;10.75;;;2.97;;
70549;SDS011;58101;48.658;2.328;2022-11-20T00:31:24;11.07;;;2.95;;
70549;SDS011;58101;48.658;2.328;2022-11-20T00:33:55;8.77;;;2.88;;
70549;SDS011;58101;48.658;2.328;2022-11-20T00:36:22;10.18;;;3.35;;
70549;SDS011;58101;48.658;2.328;2022-11-20T00:38:55;10.77;;;3.30;;
70549;SDS011;58101;48.658;2.328;2022-11-20T00:41:22;10.88;;;3.05;;
70549;SDS011;58101;48.658;2.328;2022-11-20T00:43:49;9.93;;;2.97;;
70549;SDS011;58101;48.658;2.328;2022-11-20T00:46:18;11.98;;;3.30;;
70549;SDS011;58101;48.658;2.328;2022-11-20T00:48:45;9.85;;;3.60;;
70549;SDS011;58101;48.658;2.328;2022-11-20T00:51:16;11.82;;;3.35;;
70549;SDS011;58101;48.658;2.328;2022-11-20T00:53:49;12.00;;;3.78;;
70549;SDS011;58101;48.658;2.328;2022-11-20T01:02:12;10.85;;;2.90;;
70549;SDS011;58101;48.658;2.328;2022-11-20T01:04:40;9.40;;;2.95;;
70549;SDS011;58101;48.658;2.328;2022-11-20T01:07:06;12.15;;;3.08;;
70549;SDS011;58101;48.658;2.328;2022-11-20T01:09:31;8.82;;;2.85;;
70549;SDS011;58101;48.658;2.328;2022-11-20T01:11:57;10.35;;;2.90;;
70549;SDS011;58101;48.658;2.328;2022-11-20T01:14:24;9.77;;;2.75;;
70549;SDS011;58101;48.658;2.328;2022-11-20T01:23:34;8.77;;;3.15;;
70549;SDS011;58101;48.658;2.328;2022-11-20T01:26:03;11.18;;;3.10;;
70549;SDS011;58101;48.658;2.328;2022-11-20T01:28:30;12.15;;;3.83;;
70549;SDS011;58101;48.658;2.328;2022-11-20T01:30:56;11.98;;;3.45;;
70549;SDS011;58101;48.658;2.328;2022-11-20T01:33:22;10.32;;;3.10;;
70549;SDS011;58101;48.658;2.328;2022-11-20T01:35:48;11.57;;;3.35;;
70549;SDS011;58101;48.658;2.328;2022-11-20T01:38:14;12.07;;;3.28;;
70549;SDS011;58101;48.658;2.328;2022-11-20T01:40:40;10.52;;;3.42;;
70549;SDS011;58101;48.658;2.328;2022-11-20T01:43:19;11.40;;;3.60;;
70549;SDS011;58101;48.658;2.328;2022-11-20T01:51:42;10.45;;;3.17;;
70549;SDS011;58101;48.658;2.328;2022-11-20T01:54:16;9.02;;;2.83;;
70549;SDS011;58101;48.658;2.328;2022-11-20T01:56:47;10.90;;;3.03;;
70549;SDS011;58101;48.658;2.328;2022-11-20T01:59:17;13.02;;;4.00;;
70549;SDS011;58101;48.658;2.328;2022-11-20T02:01:44;13.20;;;3.55;;
70549;SDS011;58101;48.658;2.328;2022-11-20T02:04:10;8.98;;;3.30;;
70549;SDS011;58101;48.658;2.328;2022-11-20T02:06:50;12.52;;;3.58;;
70549;SDS011;58101;48.658;2.328;2022-11-20T02:09:28;11.40;;;3.58;;
70549;SDS011;58101;48.658;2.328;2022-11-20T02:11:54;12.05;;;3.65;;
70549;SDS011;58101;48.658;2.328;2022-11-20T02:14:21;9.75;;;3.78;;
70549;SDS011;58101;48.658;2.328;2022-11-20T02:16:53;11.10;;;3.60;;
70549;SDS011;58101;48.658;2.328;2022-11-20T02:19:24;10.55;;;3.58;;
70549;SDS011;58101;48.658;2.328;2022-11-20T02:22:19;11.05;;;3.47;;
70549;SDS011;58101;48.658;2.328;2022-11-20T02:24:58;11.55;;;3.63;;
70549;SDS011;58101;48.658;2.328;2022-11-20T02:29:59;11.63;;;3.65;;
70549;SDS011;58101;48.658;2.328;2022-11-20T02:32:31;12.15;;;3.90;;
70549;SDS011;58101;48.658;2.328;2022-11-20T02:36:00;11.05;;;3.50;;
70549;SDS011;58101;48.658;2.328;2022-11-20T02:37:54;10.65;;;3.58;;
70549;SDS011;58101;48.658;2.328;2022-11-20T02:40:25;10.88;;;3.83;;
70549;SDS011;58101;48.658;2.328;2022-11-20T02:42:51;13.35;;;3.67;;
70549;SDS011;58101;48.658;2.328;2022-11-20T02:45:18;10.73;;;3.60;;
70549;SDS011;58101;48.658;2.328;2022-11-20T02:50:36;11.95;;;3.72;;
70549;SDS011;58101;48.658;2.328;2022-11-20T02:53:02;10.05;;;3.60;;
70549;SDS011;58101;48.658;2.328;2022-11-20T02:58:31;13.38;;;3.88;;
70549;SDS011;58101;48.658;2.328;2022-11-20T03:00:57;10.43;;;3.90;;
70549;SDS011;58101;48.658;2.328;2022-11-20T03:03:23;12.57;;;4.30;;
70549;SDS011;58101;48.658;2.328;2022-11-20T03:05:48;12.95;;;4.53;;
70549;SDS011;58101;48.658;2.328;2022-11-20T03:08:14;13.27;;;4.68;;
70549;SDS011;58101;48.658;2.328;2022-11-20T03:10:46;14.25;;;4.30;;
70549;SDS011;58101;48.658;2.328;2022-11-20T03:13:12;11.90;;;4.50;;
70549;SDS011;58101;48.658;2.328;2022-11-20T03:15:37;13.52;;;4.10;;
70549;SDS011;58101;48.658;2.328;2022-11-20T03:18:13;13.68;;;4.20;;
70549;SDS011;58101;48.658;2.328;2022-11-20T03:20:39;11.65;;;4.20;;
70549;SDS011;58101;48.658;2.328;2022-11-20T03:23:05;19.02;;;4.65;;
70549;SDS011;58101;48.658;2.328;2022-11-20T03:25:31;12.20;;;3.92;;
70549;SDS011;58101;48.658;2.328;2022-11-20T03:28:18;15.82;;;4.55;;
70549;SDS011;58101;48.658;2.328;2022-11-20T03:30:52;14.25;;;4.32;;
70549;SDS011;58101;48.658;2.328;2022-11-20T03:33:24;10.35;;;3.63;;
70549;SDS011;58101;48.658;2.328;2022-11-20T03:35:52;12.98;;;4.15;;
70549;SDS011;58101;48.658;2.328;2022-11-20T03:38:18;13.00;;;4.82;;
70549;SDS011;58101;48.658;2.328;2022-11-20T03:40:47;14.68;;;4.30;;
70549;SDS011;58101;48.658;2.328;2022-11-20T03:43:19;10.02;;;3.78;;
70549;SDS011;58101;48.658;2.328;2022-11-20T03:45:45;12.27;;;4.18;;
70549;SDS011;58101;48.658;2.328;2022-11-20T03:48:14;12.18;;;4.03;;
70549;SDS011;58101;48.658;2.328;2022-11-20T03:50:39;11.35;;;3.83;;
70549;SDS011;58101;48.658;2.328;2022-11-20T03:53:05;10.43;;;4.00;;
70549;SDS011;58101;48.658;2.328;2022-11-20T03:55:34;11.95;;;3.70;;
70549;SDS011;58101;48.658;2.328;2022-11-20T03:57:59;13.68;;;3.95;;
70549;SDS011;58101;48.658;2.328;2022-11-20T04:00:25;13.55;;;4.25;;
70549;SDS011;58101;48.658;2.328;2022-11-20T04:02:50;10.48;;;3.55;;
70549;SDS011;58101;48.658;2.328;2022-11-20T04:05:16;12.32;;;4.07;;
70549;SDS011;58101;48.658;2.328;2022-11-20T04:07:42;11.80;;;3.72;;
70549;SDS011;58101;48.658;2.328;2022-11-20T04:13:31;12.52;;;4.57;;
70549;SDS011;58101;48.658;2.328;2022-11-20T04:15:57;9.73;;;3.70;;
70549;SDS011;58101;48.658;2.328;2022-11-20T04:18:23;11.70;;;3.80;;
70549;SDS011;58101;48.658;2.328;2022-11-20T04:20:48;10.45;;;3.80;;
70549;SDS011;58101;48.658;2.328;2022-11-20T04:23:14;11.75;;;3.90;;
70549;SDS011;58101;48.658;2.328;2022-11-20T04:29:04;12.38;;;3.92;;
70549;SDS011;58101;48.658;2.328;2022-11-20T04:31:31;11.80;;;3.90;;
70549;SDS011;58101;48.658;2.328;2022-11-20T04:34:24;12.70;;;3.80;;
70549;SDS011;58101;48.658;2.328;2022-11-20T04:37:01;11.90;;;3.70;;
70549;SDS011;58101;48.658;2.328;2022-11-20T04:39:38;11.85;;;3.60;;
70549;SDS011;58101;48.658;2.328;2022-11-20T04:42:14;11.32;;;3.30;;
70549;SDS011;58101;48.658;2.328;2022-11-20T04:44:55;15.57;;;3.67;;
70549;SDS011;58101;48.658;2.328;2022-11-20T04:47:22;11.52;;;3.53;;
70549;SDS011;58101;48.658;2.328;2022-11-20T04:49:47;10.45;;;3.92;;
70549;SDS011;58101;48.658;2.328;2022-11-20T04:52:13;12.25;;;3.85;;
70549;SDS011;58101;48.658;2.328;2022-11-20T04:54:39;9.75;;;3.42;;
70549;SDS011;58101;48.658;2.328;2022-11-20T04:57:04;11.15;;;3.72;;
70549;SDS011;58101;48.658;2.328;2022-11-20T04:59:30;10.93;;;3.50;;
70549;SDS011;58101;48.658;2.328;2022-11-20T05:01:56;12.00;;;3.65;;
70549;SDS011;58101;48.658;2.328;2022-11-20T05:04:21;13.98;;;3.33;;
70549;SDS011;58101;48.658;2.328;2022-11-20T05:06:47;12.30;;;3.67;;
70549;SDS011;58101;48.658;2.328;2022-11-20T05:11:40;8.40;;;3.05;;
70549;SDS011;58101;48.658;2.328;2022-11-20T05:14:05;15.70;;;3.58;;
70549;SDS011;58101;48.658;2.328;2022-11-20T05:16:33;14.02;;;3.78;;
70549;SDS011;58101;48.658;2.328;2022-11-20T05:19:00;10.73;;;3.42;;
70549;SDS011;58101;48.658;2.328;2022-11-20T05:21:25;12.43;;;3.47;;
70549;SDS011;58101;48.658;2.328;2022-11-20T05:23:52;12.18;;;3.83;;
70549;SDS011;58101;48.658;2.328;2022-11-20T05:29:33;10.02;;;3.05;;
70549;SDS011;58101;48.658;2.328;2022-11-20T05:32:08;12.77;;;3.72;;
70549;SDS011;58101;48.658;2.328;2022-11-20T05:34:39;12.32;;;3.40;;
70549;SDS011;58101;48.658;2.328;2022-11-20T05:37:05;11.57;;;3.40;;
70549;SDS011;58101;48.658;2.328;2022-11-20T05:39:30;12.10;;;3.60;;
70549;SDS011;58101;48.658;2.328;2022-11-20T05:41:56;10.10;;;3.60;;
70549;SDS011;58101;48.658;2.328;2022-11-20T05:48:37;12.00;;;3.60;;
70549;SDS011;58101;48.658;2.328;2022-11-20T05:51:00;11.32;;;3.50;;
70549;SDS011;58101;48.658;2.328;2022-11-20T05:53:26;10.70;;;3.20;;
70549;SDS011;58101;48.658;2.328;2022-11-20T05:55:59;11.05;;;3.20;;
70549;SDS011;58101;48.658;2.328;2022-11-20T05:58:26;11.10;;;3.20;;
70549;SDS011;58101;48.658;2.328;2022-11-20T06:00:52;10.65;;;3.17;;
70549;SDS011;58101;48.658;2.328;2022-11-20T06:03:18;9.98;;;3.38;;
70549;SDS011;58101;48.658;2.328;2022-11-20T06:05:43;12.55;;;3.50;;
70549;SDS011;58101;48.658;2.328;2022-11-20T06:08:15;11.80;;;3.35;;
70549;SDS011;58101;48.658;2.328;2022-11-20T06:10:43;10.18;;;3.60;;
70549;SDS011;58101;48.658;2.328;2022-11-20T06:13:09;9.40;;;3.38;;
70549;SDS011;58101;48.658;2.328;2022-11-20T06:15:53;9.60;;;3.40;;
70549;SDS011;58101;48.658;2.328;2022-11-20T06:18:19;10.13;;;3.60;;
70549;SDS011;58101;48.658;2.328;2022-11-20T06:20:45;13.65;;;3.40;;
70549;SDS011;58101;48.658;2.328;2022-11-20T06:23:11;11.23;;;3.80;;
70549;SDS011;58101;48.658;2.328;2022-11-20T06:29:01;10.40;;;3.63;;
70549;SDS011;58101;48.658;2.328;2022-11-20T06:31:27;10.15;;;3.53;;
70549;SDS011;58101;48.658;2.328;2022-11-20T06:36:46;10.35;;;3.42;;
70549;SDS011;58101;48.658;2.328;2022-11-20T06:39:12;13.80;;;3.50;;
70549;SDS011;58101;48.658;2.328;2022-11-20T06:41:37;10.10;;;3.38;;
70549;SDS011;58101;48.658;2.328;2022-11-20T06:44:04;9.75;;;2.95;;
70549;SDS011;58101;48.658;2.328;2022-11-20T06:46:30;9.98;;;3.35;;
70549;SDS011;58101;48.658;2.328;2022-11-20T06:48:57;10.30;;;3.25;;
70549;SDS011;58101;48.658;2.328;2022-11-20T06:51:23;9.02;;;3.30;;
70549;SDS011;58101;48.658;2.328;2022-11-20T06:53:52;13.48;;;3.72;;
70549;SDS011;58101;48.658;2.328;2022-11-20T06:56:18;11.20;;;3.38;;
70549;SDS011;58101;48.658;2.328;2022-11-20T06:58:44;11.65;;;3.40;;
70549;SDS011;58101;48.658;2.328;2022-11-20T07:01:13;14.23;;;3.50;;
70549;SDS011;58101;48.658;2.328;2022-11-20T07:03:40;10.95;;;3.45;;
70549;SDS011;58101;48.658;2.328;2022-11-20T07:06:06;11.82;;;3.60;;
70549;SDS011;58101;48.658;2.328;2022-11-20T07:11:31;12.75;;;4.05;;
70549;SDS011;58101;48.658;2.328;2022-11-20T07:13:56;9.90;;;3.28;;
70549;SDS011;58101;48.658;2.328;2022-11-20T07:16:22;14.23;;;4.00;;
70549;SDS011;58101;48.658;2.328;2022-11-20T07:18:57;14.98;;;4.13;;
70549;SDS011;58101;48.658;2.328;2022-11-20T07:21:25;9.93;;;3.50;;
70549;SDS011;58101;48.658;2.328;2022-11-20T07:23:51;13.25;;;3.75;;
70549;SDS011;58101;48.658;2.328;2022-11-20T07:26:17;10.65;;;3.40;;
70549;SDS011;58101;48.658;2.328;2022-11-20T07:28:44;17.45;;;4.18;;
70549;SDS011;58101;48.658;2.328;2022-11-20T07:31:10;13.60;;;4.15;;
70549;SDS011;58101;48.658;2.328;2022-11-20T07:33:37;12.40;;;3.85;;
70549;SDS011;58101;48.658;2.328;2022-11-20T07:36:03;9.25;;;3.88;;
70549;SDS011;58101;48.658;2.328;2022-11-20T07:38:30;12.05;;;3.63;;
70549;SDS011;58101;48.658;2.328;2022-11-20T07:41:01;12.23;;;4.05;;
70549;SDS011;58101;48.658;2.328;2022-11-20T07:43:48;13.20;;;4.22;;
70549;SDS011;58101;48.658;2.328;2022-11-20T07:46:33;12.43;;;4.03;;
70549;SDS011;58101;48.658;2.328;2022-11-20T07:48:59;11.02;;;4.03;;
70549;SDS011;58101;48.658;2.328;2022-11-20T07:51:25;12.30;;;3.80;;
70549;SDS011;58101;48.658;2.328;2022-11-20T07:53:56;12.32;;;4.43;;
70549;SDS011;58101;48.658;2.328;2022-11-20T07:56:22;12.23;;;4.18;;
70549;SDS011;58101;48.658;2.328;2022-11-20T07:58:48;14.18;;;3.63;;
70549;SDS011;58101;48.658;2.328;2022-11-20T08:01:14;14.15;;;4.05;;
70549;SDS011;58101;48.658;2.328;2022-11-20T08:03:39;11.20;;;3.92;;
70549;SDS011;58101;48.658;2.328;2022-11-20T08:06:05;11.02;;;3.80;;
70549;SDS011;58101;48.658;2.328;2022-11-20T08:08:31;11.60;;;3.97;;
70549;SDS011;58101;48.658;2.328;2022-11-20T08:10:57;15.25;;;4.63;;
70549;SDS011;58101;48.658;2.328;2022-11-20T08:13:44;14.55;;;4.90;;
70549;SDS011;58101;48.658;2.328;2022-11-20T08:16:28;13.98;;;4.75;;
70549;SDS011;58101;48.658;2.328;2022-11-20T08:21:56;11.93;;;4.82;;
70549;SDS011;58101;48.658;2.328;2022-11-20T08:24:22;12.98;;;4.28;;
70549;SDS011;58101;48.658;2.328;2022-11-20T08:26:58;11.02;;;4.05;;
70549;SDS011;58101;48.658;2.328;2022-11-20T08:29:42;17.60;;;6.30;;
70549;SDS011;58101;48.658;2.328;2022-11-20T08:32:08;14.13;;;4.45;;
70549;SDS011;58101;48.658;2.328;2022-11-20T08:34:33;14.90;;;5.07;;
70549;SDS011;58101;48.658;2.328;2022-11-20T08:37:41;11.23;;;4.85;;
70549;SDS011;58101;48.658;2.328;2022-11-20T08:39:50;13.40;;;5.18;;
70549;SDS011;58101;48.658;2.328;2022-11-20T08:42:30;13.52;;;4.05;;
70549;SDS011;58101;48.658;2.328;2022-11-20T08:44:55;15.13;;;5.25;;
70549;SDS011;58101;48.658;2.328;2022-11-20T08:47:21;13.25;;;4.65;;
70549;SDS011;58101;48.658;2.328;2022-11-20T08:49:47;11.48;;;4.00;;
70549;SDS011;58101;48.658;2.328;2022-11-20T08:52:12;9.30;;;3.47;;
70549;SDS011;58101;48.658;2.328;2022-11-20T08:54:47;8.82;;;3.15;;
70549;SDS011;58101;48.658;2.328;2022-11-20T08:57:13;12.45;;;4.22;;
70549;SDS011;58101;48.658;2.328;2022-11-20T08:59:39;12.13;;;4.40;;
70549;SDS011;58101;48.658;2.328;2022-11-20T09:02:12;12.98;;;4.10;;
70549;SDS011;58101;48.658;2.328;2022-11-20T09:04:38;12.27;;;4.03;;
70549;SDS011;58101;48.658;2.328;2022-11-20T09:07:04;12.85;;;4.07;;
70549;SDS011;58101;48.658;2.328;2022-11-20T09:09:29;11.30;;;3.97;;
70549;SDS011;58101;48.658;2.328;2022-11-20T09:11:55;15.15;;;5.22;;
70549;SDS011;58101;48.658;2.328;2022-11-20T09:14:21;14.45;;;4.80;;
70549;SDS011;58101;48.658;2.328;2022-11-20T09:16:49;23.17;;;8.48;;
70549;SDS011;58101;48.658;2.328;2022-11-20T09:19:15;18.42;;;5.88;;
70549;SDS011;58101;48.658;2.328;2022-11-20T09:21:41;11.23;;;3.90;;
70549;SDS011;58101;48.658;2.328;2022-11-20T09:24:06;12.32;;;3.47;;
70549;SDS011;58101;48.658;2.328;2022-11-20T09:26:32;10.48;;;3.60;;
70549;SDS011;58101;48.658;2.328;2022-11-20T09:28:59;11.43;;;3.35;;
70549;SDS011;58101;48.658;2.328;2022-11-20T09:31:25;9.88;;;3.22;;
70549;SDS011;58101;48.658;2.328;2022-11-20T09:33:51;19.85;;;6.47;;
70549;SDS011;58101;48.658;2.328;2022-11-20T09:36:17;15.82;;;5.53;;
70549;SDS011;58101;48.658;2.328;2022-11-20T09:38:44;11.98;;;4.22;;
70549;SDS011;58101;48.658;2.328;2022-11-20T09:41:18;14.73;;;5.30;;
70549;SDS011;58101;48.658;2.328;2022-11-20T09:55:11;8.85;;;3.38;;
70549;SDS011;58101;48.658;2.328;2022-11-20T09:57:42;10.32;;;4.20;;
70549;SDS011;58101;48.658;2.328;2022-11-20T10:00:14;12.27;;;3.92;;
70549;SDS011;58101;48.658;2.328;2022-11-20T10:02:42;11.35;;;4.32;;
70549;SDS011;58101;48.658;2.328;2022-11-20T10:05:18;11.75;;;3.60;;
70549;SDS011;58101;48.658;2.328;2022-11-20T10:13:10;9.38;;;3.40;;
70549;SDS011;58101;48.658;2.328;2022-11-20T10:18:44;11.70;;;4.22;;
70549;SDS011;58101;48.658;2.328;2022-11-20T10:26:57;12.10;;;4.13;;
70549;SDS011;58101;48.658;2.328;2022-11-20T10:29:34;10.98;;;3.92;;
70549;SDS011;58101;48.658;2.328;2022-11-20T10:32:07;15.32;;;4.57;;
70549;SDS011;58101;48.658;2.328;2022-11-20T10:47:50;13.05;;;4.72;;
70549;SDS011;58101;48.658;2.328;2022-11-20T10:50:20;14.15;;;5.10;;
70549;SDS011;58101;48.658;2.328;2022-11-20T10:55:32;11.57;;;4.43;;
70549;SDS011;58101;48.658;2.328;2022-11-20T10:58:17;13.82;;;4.95;;
70549;SDS011;58101;48.658;2.328;2022-11-20T11:01:02;11.13;;;3.80;;
70549;SDS011;58101;48.658;2.328;2022-11-20T11:03:30;14.55;;;4.07;;
70549;SDS011;58101;48.658;2.328;2022-11-20T11:05:59;11.40;;;3.85;;
70549;SDS011;58101;48.658;2.328;2022-11-20T11:08:34;20.35;;;8.95;;
70549;SDS011;58101;48.658;2.328;2022-11-20T11:11:20;13.52;;;4.00;;
70549;SDS011;58101;48.658;2.328;2022-11-20T11:13:48;12.65;;;4.60;;
70549;SDS011;58101;48.658;2.328;2022-11-20T11:16:24;22.13;;;8.15;;
70549;SDS011;58101;48.658;2.328;2022-11-20T11:18:51;10.50;;;3.60;;
70549;SDS011;58101;48.658;2.328;2022-11-20T11:21:28;11.43;;;4.10;;
70549;SDS011;58101;48.658;2.328;2022-11-20T11:24:01;15.82;;;6.78;;
70549;SDS011;58101;48.658;2.328;2022-11-20T11:26:29;11.85;;;4.57;;
70549;SDS011;58101;48.658;2.328;2022-11-20T11:28:58;14.27;;;6.35;;
70549;SDS011;58101;48.658;2.328;2022-11-20T11:31:29;12.90;;;4.60;;
70549;SDS011;58101;48.658;2.328;2022-11-20T11:34:06;11.43;;;4.93;;
70549;SDS011;58101;48.658;2.328;2022-11-20T11:36:33;13.20;;;4.80;;
70549;SDS011;58101;48.658;2.328;2022-11-20T11:39:00;11.23;;;3.83;;
70549;SDS011;58101;48.658;2.328;2022-11-20T11:41:28;13.77;;;4.88;;
70549;SDS011;58101;48.658;2.328;2022-11-20T11:44:22;9.48;;;3.58;;
70549;SDS011;58101;48.658;2.328;2022-11-20T11:47:20;11.68;;;3.50;;
70549;SDS011;58101;48.658;2.328;2022-11-20T11:52:36;14.63;;;5.95;;
70549;SDS011;58101;48.658;2.328;2022-11-20T12:06:51;18.48;;;8.10;;
70549;SDS011;58101;48.658;2.328;2022-11-20T12:09:24;21.50;;;9.52;;
70549;SDS011;58101;48.658;2.328;2022-11-20T12:12:04;13.60;;;5.40;;
70549;SDS011;58101;48.658;2.328;2022-11-20T12:14:36;12.88;;;5.18;;
70549;SDS011;58101;48.658;2.328;2022-11-20T12:17:03;34.95;;;15.60;;
70549;SDS011;58101;48.658;2.328;2022-11-20T12:19:30;16.75;;;7.15;;
70549;SDS011;58101;48.658;2.328;2022-11-20T12:31:18;16.70;;;6.70;;
70549;SDS011;58101;48.658;2.328;2022-11-20T12:36:19;14.93;;;6.90;;
70549;SDS011;58101;48.658;2.328;2022-11-20T12:44:57;10.30;;;4.60;;
70549;SDS011;58101;48.658;2.328;2022-11-20T12:57:06;11.82;;;4.18;;
70549;SDS011;58101;48.658;2.328;2022-11-20T13:05:17;10.35;;;3.85;;
70549;SDS011;58101;48.658;2.328;2022-11-20T13:07:50;12.82;;;3.17;;
70549;SDS011;58101;48.658;2.328;2022-11-20T13:10:20;10.60;;;3.78;;
70549;SDS011;58101;48.658;2.328;2022-11-20T13:12:49;9.95;;;3.30;;
70549;SDS011;58101;48.658;2.328;2022-11-20T13:18:08;10.20;;;4.55;;
70549;SDS011;58101;48.658;2.328;2022-11-20T13:20:35;9.48;;;3.60;;
70549;SDS011;58101;48.658;2.328;2022-11-20T13:23:06;14.02;;;5.15;;
70549;SDS011;58101;48.658;2.328;2022-11-20T13:25:32;9.63;;;3.50;;
70549;SDS011;58101;48.658;2.328;2022-11-20T13:28:01;11.88;;;5.15;;
70549;SDS011;58101;48.658;2.328;2022-11-20T13:30:30;14.73;;;8.23;;
70549;SDS011;58101;48.658;2.328;2022-11-20T13:33:04;11.32;;;4.57;;
70549;SDS011;58101;48.658;2.328;2022-11-20T13:35:34;14.90;;;6.20;;
70549;SDS011;58101;48.658;2.328;2022-11-20T13:38:05;15.18;;;5.45;;
70549;SDS011;58101;48.658;2.328;2022-11-20T13:40:50;13.73;;;4.78;;
70549;SDS011;58101;48.658;2.328;2022-11-20T13:45:55;13.48;;;4.80;;
70549;SDS011;58101;48.658;2.328;2022-11-20T13:48:26;17.35;;;6.65;;
70549;SDS011;58101;48.658;2.328;2022-11-20T13:59:58;13.05;;;4.90;;
70549;SDS011;58101;48.658;2.328;2022-11-20T14:02:13;11.75;;;4.80;;
70549;SDS011;58101;48.658;2.328;2022-11-20T14:04:42;13.95;;;4.70;;
70549;SDS011;58101;48.658;2.328;2022-11-20T14:07:37;11.25;;;5.40;;
70549;SDS011;58101;48.658;2.328;2022-11-20T14:10:18;9.77;;;3.05;;
70549;SDS011;58101;48.658;2.328;2022-11-20T14:12:55;10.15;;;3.95;;
70549;SDS011;58101;48.658;2.328;2022-11-20T14:15:24;17.80;;;7.85;;
70549;SDS011;58101;48.658;2.328;2022-11-20T14:17:57;19.27;;;6.47;;
70549;SDS011;58101;48.658;2.328;2022-11-20T14:20:26;10.82;;;4.82;;
70549;SDS011;58101;48.658;2.328;2022-11-20T14:22:54;10.63;;;3.38;;
70549;SDS011;58101;48.658;2.328;2022-11-20T14:25:24;11.70;;;3.63;;
70549;SDS011;58101;48.658;2.328;2022-11-20T14:27:59;14.02;;;3.90;;
70549;SDS011;58101;48.658;2.328;2022-11-20T14:30:27;14.65;;;3.58;;
70549;SDS011;58101;48.658;2.328;2022-11-20T14:32:55;11.15;;;3.10;;
70549;SDS011;58101;48.658;2.328;2022-11-20T14:35:34;12.30;;;3.85;;
70549;SDS011;58101;48.658;2.328;2022-11-20T14:38:08;12.85;;;3.80;;
70549;SDS011;58101;48.658;2.328;2022-11-20T14:40:37;15.18;;;3.70;;
70549;SDS011;58101;48.658;2.328;2022-11-20T14:45:54;12.73;;;3.47;;
70549;SDS011;58101;48.658;2.328;2022-11-20T14:54:18;12.85;;;3.83;;
70549;SDS011;58101;48.658;2.328;2022-11-20T14:57:02;13.85;;;4.25;;
70549;SDS011;58101;48.658;2.328;2022-11-20T14:59:32;16.50;;;4.30;;
70549;SDS011;58101;48.658;2.328;2022-11-20T15:02:02;16.40;;;6.10;;
70549;SDS011;58101;48.658;2.328;2022-11-20T15:04:48;24.23;;;7.13;;
70549;SDS011;58101;48.658;2.328;2022-11-20T15:07:26;45.20;;;19.38;;
70549;SDS011;58101;48.658;2.328;2022-11-20T15:10:03;39.20;;;16.67;;
70549;SDS011;58101;48.658;2.328;2022-11-20T15:12:32;45.83;;;21.83;;
70549;SDS011;58101;48.658;2.328;2022-11-20T15:15:01;35.63;;;16.10;;
70549;SDS011;58101;48.658;2.328;2022-11-20T15:20:42;56.30;;;23.17;;
70549;SDS011;58101;48.658;2.328;2022-11-20T15:23:12;40.42;;;17.23;;
70549;SDS011;58101;48.658;2.328;2022-11-20T15:25:40;40.42;;;15.65;;
70549;SDS011;58101;48.658;2.328;2022-11-20T15:30:44;59.10;;;24.58;;
70549;SDS011;58101;48.658;2.328;2022-11-20T15:33:11;35.83;;;14.93;;
70549;SDS011;58101;48.658;2.328;2022-11-20T15:35:40;38.50;;;16.02;;
70549;SDS011;58101;48.658;2.328;2022-11-20T15:38:06;44.30;;;20.90;;
70549;SDS011;58101;48.658;2.328;2022-11-20T15:40:32;47.63;;;23.13;;
70549;SDS011;58101;48.658;2.328;2022-11-20T15:42:58;57.08;;;26.20;;
70549;SDS011;58101;48.658;2.328;2022-11-20T15:48:20;31.20;;;12.75;;
70549;SDS011;58101;48.658;2.328;2022-11-20T15:54:21;31.73;;;10.05;;
70549;SDS011;58101;48.658;2.328;2022-11-20T15:56:53;33.47;;;13.77;;
70549;SDS011;58101;48.658;2.328;2022-11-20T15:59:19;32.60;;;15.55;;
70549;SDS011;58101;48.658;2.328;2022-11-20T16:01:51;31.33;;;15.60;;
70549;SDS011;58101;48.658;2.328;2022-11-20T16:04:16;22.88;;;8.93;;
70549;SDS011;58101;48.658;2.328;2022-11-20T16:06:43;31.58;;;12.43;;
70549;SDS011;58101;48.658;2.328;2022-11-20T16:09:11;18.50;;;5.45;;
70549;SDS011;58101;48.658;2.328;2022-11-20T16:11:37;32.63;;;13.95;;
70549;SDS011;58101;48.658;2.328;2022-11-20T16:14:03;23.05;;;7.85;;
70549;SDS011;58101;48.658;2.328;2022-11-20T16:16:48;41.50;;;19.55;;
70549;SDS011;58101;48.658;2.328;2022-11-20T16:19:18;39.30;;;18.13;;
70549;SDS011;58101;48.658;2.328;2022-11-20T16:21:47;24.77;;;9.55;;
70549;SDS011;58101;48.658;2.328;2022-11-20T16:24:13;20.73;;;6.63;;
70549;SDS011;58101;48.658;2.328;2022-11-20T16:26:39;33.63;;;12.13;;
70549;SDS011;58101;48.658;2.328;2022-11-20T16:29:05;21.90;;;7.78;;
70549;SDS011;58101;48.658;2.328;2022-11-20T16:31:32;38.95;;;18.17;;
70549;SDS011;58101;48.658;2.328;2022-11-20T16:33:59;27.83;;;11.32;;
70549;SDS011;58101;48.658;2.328;2022-11-20T16:36:32;38.90;;;14.75;;
70549;SDS011;58101;48.658;2.328;2022-11-20T16:39:04;46.38;;;17.13;;
70549;SDS011;58101;48.658;2.328;2022-11-20T16:41:31;30.75;;;12.23;;
70549;SDS011;58101;48.658;2.328;2022-11-20T16:44:08;28.50;;;8.80;;
70549;SDS011;58101;48.658;2.328;2022-11-20T16:46:35;25.63;;;9.20;;
70549;SDS011;58101;48.658;2.328;2022-11-20T16:49:03;29.98;;;8.93;;
70549;SDS011;58101;48.658;2.328;2022-11-20T16:51:37;39.08;;;13.70;;
70549;SDS011;58101;48.658;2.328;2022-11-20T16:54:07;34.33;;;13.73;;
70549;SDS011;58101;48.658;2.328;2022-11-20T16:56:49;44.65;;;16.05;;
70549;SDS011;58101;48.658;2.328;2022-11-20T16:59:22;36.78;;;12.80;;
70549;SDS011;58101;48.658;2.328;2022-11-20T17:01:48;32.83;;;12.90;;
70549;SDS011;58101;48.658;2.328;2022-11-20T17:04:16;52.53;;;21.48;;
70549;SDS011;58101;48.658;2.328;2022-11-20T17:06:42;72.65;;;29.65;;
70549;SDS011;58101;48.658;2.328;2022-11-20T17:09:08;26.30;;;7.43;;
70549;SDS011;58101;48.658;2.328;2022-11-20T17:11:35;23.05;;;6.70;;
70549;SDS011;58101;48.658;2.328;2022-11-20T17:14:04;19.92;;;6.80;;
70549;SDS011;58101;48.658;2.328;2022-11-20T17:16:48;18.35;;;7.63;;
70549;SDS011;58101;48.658;2.328;2022-11-20T17:19:14;30.17;;;9.95;;
70549;SDS011;58101;48.658;2.328;2022-11-20T17:21:40;28.00;;;8.35;;
70549;SDS011;58101;48.658;2.328;2022-11-20T17:24:07;25.48;;;8.95;;
70549;SDS011;58101;48.658;2.328;2022-11-20T17:26:35;26.85;;;9.88;;
70549;SDS011;58101;48.658;2.328;2022-11-20T17:29:04;21.83;;;7.90;;
70549;SDS011;58101;48.658;2.328;2022-11-20T17:31:34;24.10;;;7.80;;
70549;SDS011;58101;48.658;2.328;2022-11-20T17:34:02;19.48;;;6.13;;
70549;SDS011;58101;48.658;2.328;2022-11-20T17:36:29;29.85;;;12.88;;
70549;SDS011;58101;48.658;2.328;2022-11-20T17:41:22;28.55;;;8.43;;
70549;SDS011;58101;48.658;2.328;2022-11-20T17:43:51;26.70;;;9.15;;
70549;SDS011;58101;48.658;2.328;2022-11-20T17:46:21;27.23;;;12.63;;
70549;SDS011;58101;48.658;2.328;2022-11-20T17:48:49;28.77;;;12.50;;
70549;SDS011;58101;48.658;2.328;2022-11-20T17:51:21;31.55;;;12.10;;